createdAt,value
2023-03-12T00:04:21.475Z,140043.78
2023-03-12T00:09:26.084Z,140046.22
2023-03-12T00:14:29.453Z,140030.31
2023-03-12T00:19:32.687Z,140037.66
2023-03-12T00:24:39.591Z,140020.47
2023-03-12T00:29:42.850Z,140038.88
2023-03-12T00:34:51.554Z,140038.88
2023-03-12T00:39:56.323Z,140080.56
2023-03-12T00:44:59.716Z,140144.31
2023-03-12T00:50:03.164Z,140186.00
2023-03-12T00:55:10.406Z,140189.66
2023-03-12T01:00:14.297Z,140199.44
2023-03-12T01:05:17.633Z,140160.22
2023-03-12T01:10:22.423Z,140160.22
2023-03-12T01:15:28.557Z,140177.41
2023-03-12T01:20:32.123Z,140170.06
2023-03-12T01:25:38.248Z,140209.25
2023-03-12T16:39:07.465Z,141000.28
2023-03-12T16:44:15.311Z,140999.06
2023-03-12T16:49:20.831Z,141006.47
2023-03-12T16:54:25.514Z,141033.53
2023-03-12T16:59:31.813Z,141002.78
2023-03-12T17:04:35.149Z,140960.94
2023-03-12T17:09:40.006Z,140928.94
2023-03-12T17:14:43.420Z,140946.19
2023-03-12T17:19:46.807Z,140947.41
2023-03-12T17:24:51.428Z,140917.91
2023-03-12T17:29:56.989Z,140906.81
2023-03-12T17:35:03.208Z,140901.88
2023-03-12T17:40:09.639Z,140925.25
2023-03-12T17:45:13.469Z,140919.13
2023-03-12T17:50:17.324Z,140930.19
2023-03-12T17:55:24.550Z,140914.16
2023-03-12T18:00:28.345Z,140926.50
2023-03-12T18:05:32.985Z,140941.22
2023-03-12T18:10:39.092Z,140928.94
2023-03-12T18:15:42.593Z,140920.34
2023-03-12T18:20:45.997Z,140936.31
2023-03-12T18:25:52.731Z,140954.78
2023-03-12T18:30:56.045Z,140953.56
2023-03-12T18:35:59.380Z,140944.91
2023-03-12T18:41:05.537Z,140912.94
2023-03-12T18:46:12.942Z,140906.81
2023-03-12T18:51:16.322Z,140853.91
2023-03-12T18:56:20.949Z,140831.78
2023-03-12T19:01:24.244Z,140850.22
2023-03-12T19:06:29.563Z,140841.63
2023-03-12T19:11:34.294Z,140826.84
2023-03-12T19:16:37.577Z,140835.50
2023-03-12T19:21:42.947Z,140853.91
2023-03-12T19:26:47.567Z,140860.06
2023-03-12T19:31:50.905Z,140852.69
2023-03-12T19:36:54.192Z,140879.75
2023-03-12T19:41:59.201Z,140900.66
2023-03-12T19:47:05.498Z,140898.22
2023-03-12T19:52:08.749Z,140926.50
2023-03-12T19:57:13.383Z,140912.94
2023-03-12T20:02:16.763Z,140917.91
2023-03-12T20:07:20.208Z,140922.81
2023-03-12T20:12:25.315Z,140970.75
2023-03-12T20:17:28.747Z,140978.16
2023-03-12T20:22:32.754Z,140975.72
2023-03-12T20:27:38.481Z,141016.28
2023-03-12T20:32:44.316Z,141036.00
2023-03-12T20:37:50.055Z,141059.38
2023-03-12T20:42:54.885Z,141097.53
2023-03-12T20:48:00.731Z,141108.59
2023-03-12T20:53:04.182Z,141123.34
2023-03-12T20:58:09.042Z,141156.56
2023-03-12T21:03:15.399Z,141172.59
2023-03-12T21:08:21.017Z,141199.69
2023-03-12T21:13:26.507Z,141239.06
2023-03-12T21:18:30.036Z,141260.03
2023-03-12T21:23:34.550Z,141283.44
2023-03-12T21:28:42.286Z,141295.72
2023-03-12T21:33:45.602Z,141298.19
2023-03-12T21:38:49.011Z,141325.28
2023-03-12T21:43:54.053Z,141342.56
2023-03-12T21:48:58.687Z,141351.16
2023-03-12T21:54:02.430Z,141347.47
2023-03-12T21:59:07.328Z,141378.28
2023-03-12T22:04:10.728Z,141368.44
2023-03-12T22:09:16.692Z,141356.09
2023-03-12T22:14:21.373Z,141338.88
2023-03-12T22:19:24.665Z,141364.69
2023-03-12T22:24:27.953Z,141364.69
2023-03-12T22:29:35.515Z,141353.63
